Popple, Minnesota
Current Conditions -  °F | °C
As of 8:35 AM on Thursday 27 Nov 2014 (Local Time) from KFSE Reporting Station
Clear Clear  
Wind Chill: -18°   Ceiling: Unl
Heat Index: -18°   Visibility: 10mi
Dew Point: -24°   Wind: 0mph
Humidity: 76%   Direction: NA
Pressure: 30.47"   Gusts: NA
Location:  47.3892°N, 95.4294°W
Report Text: KFSE 271435Z AUTO 00000KT 10SM CLR M28/M31 A3047 RMK AO2
Loading
Personal Weather Stations






























Interactive Weather Map New forecast layout! Learn more

10-Day Weather Forecast

Advertisements
Track Severe Weather on mobile